DFFD/OUA METAR and TAF weather

Enter ICAO airport designator
Station Type Date Time Source
DFFD METAR 2021/06/24 05:00 UTC NOAA

DFFD 240500Z 19006KT CAVOK 26/23 Q1011 NOSIG


Station Type Date Time Source
DFFD Decoded METAR 2021/06/24 05:00 UTC NOAA

Ouagadougou, Burkina Faso (DFFD) 12-21N 001-31W 306M
Jun 24, 2021 - 01:00 AM EDT / 2021.06.24 0500 UTC
Wind: from the S (190 degrees) at 7 MPH (6 KT):0
Visibility: greater than 7 mile(s):0
Temperature: 78 F (26 C)
Dew Point: 73 F (23 C)
Relative Humidity: 83%
Pressure (altimeter): 29.85 in. Hg (1011 hPa)
ob: DFFD 240500Z 19006KT CAVOK 26/23 Q1011 NOSIG
cycle: 5

Station Type Date Time Source
DFFD TAF 2021/06/23 18:09 UTC NOAA

TAF TAF DFFD 231700Z 2318/2424 22008KT 9999 SCT026
TEMPO 2318/2324 4000 TSRA SCT026 SCT033CB
TEMPO 2415/2424 4000 TSRA SCT026 SCT033CB

Example: see airport list